Stations météo

réclame
Mon MeteoGroup
Großer Arber, Allemagne (10791): Température de l'air & dewpoint: 03.07.2020 07:00:00 - 09.07.2020 07:00:00 (CEST)Großer Arber, Allemagne (10791): Vitesse du vent & gusts: 03.07.2020 07:00:00 - 09.07.2020 07:00:00 (CEST)Großer Arber, Allemagne (10791): Direction du vent: 03.07.2020 07:00:00 - 09.07.2020 07:00:00 (CEST)Großer Arber, Allemagne (10791): visibility: 03.07.2020 07:00:00 - 09.07.2020 07:00:00 (CEST)Großer Arber, Allemagne (10791): Ensoleillement: 03.07.2020 07:00:00 - 09.07.2020 07:00:00 (CEST)Großer Arber, Allemagne (10791): Quantités de précipitations: 03.07.2020 07:00:00 - 09.07.2020 07:00:00 (CEST)
Date & Time tt [°C] td [°C] ff [km/h] ff [knt] fx [km/h] fx [knt] dd vv [km] sd [min] rr [mm]
09.07.2020 07:00:00 9,1 8,6 37 20 52 28 WSW 25 0 0,0
09.07.2020 06:00:00 8,8 8,6 39 21 47 25 WSW 23 0 0,0
09.07.2020 05:00:00 8,7 8,7 36 19 43 23 WSW 7 0 0,0
09.07.2020 04:00:00 8,9 8,9 36 19 49 27 WSW - 0 0,2
09.07.2020 03:00:00 9,3 9,3 42 23 57 31 W - 0 0,0
09.07.2020 02:00:00 9,3 9,3 40 22 57 31 W - 0 0,1
09.07.2020 01:00:00 9,3 9,3 43 23 67 36 W - 0 0,2
09.07.2020 00:00:00 9,2 9,2 49 26 69 38 W - 0 0,1
08.07.2020 23:00:00 8,9 8,9 43 23 64 35 W - 0 0,6
08.07.2020 22:00:00 8,7 8,7 34 18 64 35 WNW - 0 0,4
08.07.2020 21:00:00 8,4 8,4 28 15 53 28 WNW - 0 0,4
08.07.2020 20:00:00 8,7 8,2 37 20 55 30 W 20 0 0,3
08.07.2020 19:00:00 8,7 8,2 36 19 49 26 W 18 0 0,4
08.07.2020 18:00:00 9,8 9,1 25 13 31 17 W 19 0 0,7
08.07.2020 17:00:00 10,3 8,8 21 11 37 20 W 22 0 0,2
08.07.2020 16:00:00 11,9 7,6 28 15 45 24 WSW 58 0 0,0
08.07.2020 15:00:00 12,7 7,3 30 16 47 26 WSW 75 9 0,0
08.07.2020 14:00:00 12,7 6,7 33 18 45 24 SW 55 12 0,0
08.07.2020 13:00:00 11,6 6,3 32 17 45 24 SW 52 58 0,0
08.07.2020 12:00:00 12,3 6,0 29 16 49 26 SW 46 57 0,0
08.07.2020 11:00:00 11,7 5,8 32 17 48 26 SW 57 59 0,0
08.07.2020 10:00:00 10,6 5,7 24 13 43 23 SW 36 56 0,0
08.07.2020 09:00:00 9,1 4,7 26 14 37 20 SW 54 27 0,0
08.07.2020 08:00:00 7,7 4,0 23 13 40 21 SW 51 15 0,0
08.07.2020 07:00:00 7,6 3,7 26 14 36 19 SW 51 6 0,0
08.07.2020 06:00:00 7,4 3,5 27 14 32 17 WSW 64 0 0,0
08.07.2020 05:00:00 7,1 3,3 26 14 31 17 WSW 63 0 0,0
08.07.2020 04:00:00 7,0 3,5 26 14 29 16 WSW 58 0 0,0
08.07.2020 03:00:00 7,3 3,7 26 14 29 15 SW 61 0 0,0
08.07.2020 02:00:00 7,4 3,6 24 13 28 15 WSW 70 0 0,0
08.07.2020 01:00:00 7,1 3,5 21 11 25 14 WSW 75 0 0,0
08.07.2020 00:00:00 7,6 3,5 19 10 23 13 WSW 63 0 0,0
07.07.2020 23:00:00 7,8 3,6 18 10 20 11 WSW 71 0 0,0
07.07.2020 22:00:00 7,7 3,5 17 9 19 10 SW 73 0 0,0
07.07.2020 21:00:00 8,7 4,2 14 8 20 11 W 75 29 0,0
07.07.2020 20:00:00 9,0 3,9 14 8 24 13 W 75 37 0,0
07.07.2020 19:00:00 9,6 3,3 14 8 26 14 WSW 68 30 0,0
07.07.2020 18:00:00 10,8 2,8 21 11 31 17 W 75 40 0,0
07.07.2020 17:00:00 11,4 4,1 17 9 33 18 W 75 40 0,0
07.07.2020 16:00:00 10,1 3,5 21 11 32 17 W 71 27 0,0
07.07.2020 15:00:00 10,1 3,5 16 9 31 17 W 74 27 0,0
07.07.2020 14:00:00 9,9 4,0 14 7 34 18 WNW 75 32 0,0
07.07.2020 13:00:00 8,0 3,5 13 7 31 17 W 75 15 0,0
07.07.2020 12:00:00 8,9 4,1 13 7 31 17 WNW 56 33 0,0
07.07.2020 11:00:00 7,7 3,2 18 10 32 18 W 65 46 0,0
07.07.2020 10:00:00 6,8 2,6 19 10 32 17 WNW 48 50 0,0
07.07.2020 09:00:00 6,2 3,4 10 6 23 13 WNW 49 60 0,0
07.07.2020 08:00:00 4,6 3,3 13 7 31 17 WNW 0,9 51 0,0
07.07.2020 07:00:00 3,4 3,3 19 10 28 15 NW 0,1 2 0,0
07.07.2020 06:00:00 3,2 3,2 23 13 32 18 NNW 0,1 0 0,0
07.07.2020 05:00:00 2,8 2,8 26 14 36 19 NW 0,1 0 0,0
07.07.2020 04:00:00 3,1 2,3 27 14 44 24 NW 46 0 0,0
07.07.2020 03:00:00 3,7 3,7 30 16 44 24 NW 0,2 0 0,0
07.07.2020 02:00:00 4,0 3,5 32 18 47 26 NW 26 0 0,0
07.07.2020 01:00:00 4,3 2,5 30 16 50 27 NW 48 0 0,0
07.07.2020 00:00:00 5,4 2,9 34 19 55 30 NW 51 0 0,0
06.07.2020 23:00:00 6,4 2,7 35 19 54 29 NW 57 0 0,0
06.07.2020 22:00:00 7,0 2,5 32 17 52 28 WNW 45 6 0,0
06.07.2020 21:00:00 7,9 2,3 34 18 50 27 WNW 61 30 0,0
06.07.2020 20:00:00 9,6 3,9 31 17 54 29 NW 66 43 0,0
06.07.2020 19:00:00 10,4 2,3 39 21 58 32 NW 63 55 0,0
06.07.2020 18:00:00 12,0 4,8 30 16 55 30 WNW 75 60 0,0
06.07.2020 17:00:00 11,4 3,5 39 21 57 31 W 75 47 0,0
06.07.2020 16:00:00 11,1 9,2 21 12 56 31 W 65 8 0,0
06.07.2020 15:00:00 9,2 9,0 28 15 42 23 W 2,5 27 0,0
06.07.2020 14:00:00 8,9 8,9 32 18 65 35 WSW 0,3 2 0,2
06.07.2020 13:00:00 7,0 6,6 44 24 70 38 W 4,2 0 2,6
06.07.2020 12:00:00 10,7 10,7 40 22 58 32 W 0,1 0 3,5
06.07.2020 11:00:00 11,0 11,0 35 19 50 27 WSW 0,1 0 1,0
06.07.2020 10:00:00 11,1 11,1 31 17 53 28 W - 0 0,2
06.07.2020 09:00:00 12,4 12,4 32 17 58 31 WSW - 0 0,0
06.07.2020 08:00:00 12,4 12,4 35 19 51 28 SW - 0 0,0
06.07.2020 07:00:00 12,6 12,5 40 22 56 30 WSW 0,2 11 0,0
06.07.2020 06:00:00 12,4 12,1 42 23 56 30 WSW 39 7 0,0
06.07.2020 05:00:00 12,8 12,1 36 19 50 27 WSW 59 0 0,0
06.07.2020 04:00:00 13,0 12,2 31 17 47 26 W 54 0 0,0
06.07.2020 03:00:00 13,4 13,2 29 16 46 25 W 22 0 0,0
06.07.2020 02:00:00 14,0 12,9 36 19 49 27 WSW 63 0 0,0
06.07.2020 01:00:00 14,3 13,2 38 21 49 26 WSW 75 0 0,0
06.07.2020 00:00:00 14,2 13,5 36 19 46 25 WSW 46 0 0,0
05.07.2020 23:00:00 14,5 13,6 39 21 49 26 WSW 49 0 0,0
05.07.2020 22:00:00 14,5 13,4 39 21 48 26 WSW 69 0 0,0
05.07.2020 21:00:00 14,7 13,4 30 16 43 23 SW 54 9 0,0
05.07.2020 20:00:00 16,0 13,3 28 15 41 22 WSW 55 50 0,0
05.07.2020 19:00:00 15,8 12,8 27 15 45 25 SW 58 20 0,0
05.07.2020 18:00:00 17,6 13,2 27 15 42 23 SW 75 30 0,0
05.07.2020 17:00:00 16,1 12,7 27 15 45 25 WSW 75 1 0,0
05.07.2020 16:00:00 15,4 12,1 34 18 54 29 SW 75 22 0,0
05.07.2020 15:00:00 16,9 12,9 35 19 56 30 SW 51 31 0,0
05.07.2020 14:00:00 15,0 12,0 39 21 56 30 SW 75 24 0,0
05.07.2020 13:00:00 14,4 11,9 36 19 52 28 SW 75 18 0,0
05.07.2020 12:00:00 13,8 11,1 34 19 48 26 SW 73 24 0,0
05.07.2020 11:00:00 13,4 10,0 29 15 49 26 SW 73 3 0,0
05.07.2020 10:00:00 12,0 10,0 29 15 42 23 SW 52 0 0,0
05.07.2020 09:00:00 11,6 9,5 28 15 51 27 SW 64 13 0,0
05.07.2020 08:00:00 12,2 9,1 32 18 49 26 WSW 53 52 0,0
05.07.2020 07:00:00 11,4 8,5 34 18 44 24 WSW 60 1 0,0
05.07.2020 06:00:00 11,4 8,3 33 18 47 26 WSW 67 10 0,0
05.07.2020 05:00:00 11,4 8,2 35 19 51 27 W 64 0 0,0
05.07.2020 04:00:00 11,7 7,9 39 21 55 30 W 54 0 0,0
05.07.2020 03:00:00 11,8 7,8 34 18 46 25 WSW 56 0 0,0
05.07.2020 02:00:00 11,9 8,5 39 21 51 28 WSW 61 0 0,0
05.07.2020 01:00:00 12,1 8,3 39 21 48 26 WSW 61 0 0,0
05.07.2020 00:00:00 12,1 8,3 38 20 48 26 WSW 65 0 0,0
04.07.2020 23:00:00 12,2 8,2 35 19 43 23 WSW 55 0 0,0
04.07.2020 22:00:00 12,1 8,0 34 18 42 23 WSW 68 3 0,0
04.07.2020 21:00:00 12,4 7,7 30 16 42 23 WSW 75 55 0,0
04.07.2020 20:00:00 14,1 7,7 26 14 40 22 WSW 60 60 0,0
04.07.2020 19:00:00 14,9 8,1 27 15 40 22 WSW 57 59 0,0
04.07.2020 18:00:00 15,6 7,9 24 13 42 23 WSW 52 59 0,0
04.07.2020 17:00:00 15,3 7,8 27 14 37 20 SW 73 49 0,0
04.07.2020 16:00:00 14,9 7,8 23 12 39 21 SW 52 30 0,0
04.07.2020 15:00:00 14,4 7,5 23 12 35 19 SW 55 34 0,0
04.07.2020 14:00:00 13,3 6,0 18 10 35 19 WSW 75 23 0,0
04.07.2020 13:00:00 13,2 6,0 21 12 35 19 WSW 65 23 0,0
04.07.2020 12:00:00 12,6 6,3 20 11 34 18 WSW 73 29 0,0
04.07.2020 11:00:00 12,3 6,0 23 12 40 22 WSW 48 54 0,0
04.07.2020 10:00:00 12,0 6,3 16 9 31 17 WSW 54 59 0,0
04.07.2020 09:00:00 10,8 5,7 23 12 30 16 W 50 60 0,0
04.07.2020 08:00:00 10,6 6,5 16 9 27 14 SW 55 60 0,0
04.07.2020 07:00:00 9,6 5,7 18 10 24 13 WSW 69 17 0,0
04.07.2020 06:00:00 9,0 5,6 20 11 24 13 W 73 18 0,0
04.07.2020 05:00:00 8,9 5,5 21 11 24 13 WSW 66 0 0,0
04.07.2020 04:00:00 9,0 5,4 17 9 21 11 W 75 0 0,0
04.07.2020 03:00:00 8,9 5,6 12 7 17 9 WNW 75 0 0,0
04.07.2020 02:00:00 9,2 5,5 12 6 17 9 WNW 69 0 0,0
04.07.2020 01:00:00 9,4 5,3 13 7 22 12 WNW 75 0 0,0
04.07.2020 00:00:00 9,5 5,1 15 8 22 12 W 74 0 0,0
03.07.2020 23:00:00 9,7 4,9 16 9 23 12 WNW 68 0 0,0
03.07.2020 22:00:00 10,0 5,3 15 8 22 12 WNW 75 15 0,0
03.07.2020 21:00:00 11,2 5,8 14 8 33 18 WNW 75 60 0,0
03.07.2020 20:00:00 12,6 5,8 17 9 33 18 WNW 67 39 0,0
03.07.2020 19:00:00 13,6 6,5 18 10 32 17 WNW 75 29 0,0
03.07.2020 18:00:00 12,4 5,6 24 13 42 23 W 75 38 0,0
03.07.2020 17:00:00 14,5 7,1 23 12 40 21 W 75 57 0,0
03.07.2020 16:00:00 13,4 5,9 23 12 41 22 W 59 34 0,0
03.07.2020 15:00:00 11,4 6,7 22 12 40 22 W 67 28 0,0
03.07.2020 14:00:00 12,2 7,7 19 10 39 21 WNW 53 38 0,0
03.07.2020 13:00:00 12,2 5,7 22 12 42 23 W 63 54 0,0
03.07.2020 12:00:00 11,0 7,3 22 12 40 22 W 60 42 0,0
03.07.2020 11:00:00 9,6 7,6 18 10 38 21 W 38 37 0,0
03.07.2020 10:00:00 8,5 7,3 15 8 29 16 WNW 44 21 0,0
03.07.2020 09:00:00 8,4 8,0 14 8 28 15 NW 1,9 21 0,0
03.07.2020 08:00:00 8,0 8,0 17 9 29 16 WNW 0,1 3 0,0
03.07.2020 07:00:00 8,0 8,0 15 8 32 18 W 0,1 0 0,0

tt = Température de l'air
td = dewpoint
ff = Vitesse du vent
fx = gusts
dd = Direction du vent
vv = visibility
sd = Ensoleillement
rr = Quantités de précipitations

stations d'obs. à proximité